Time;durP1;ratioP1;P1;durP2;ratioP2;P2;SDS_P1;SDS_P2;PMS_P1;PMS_P2;Temp;Humidity;BMP_temperature;BMP_pressure;BME280_temperature;BME280_humidity;BME280_pressure;Samples;Min_cycle;Max_cycle;Signal;HPM_P1;HPM_P2
2023/06/26 00:02:25;;;;;;;3.05;2.80;;;30.80;42.90;;;;;;5032650;28;20025;-70
2023/06/26 00:04:54;;;;;;;4.38;2.45;;;30.80;42.90;;;;;;5033309;28;20092;-70
2023/06/26 00:07:21;;;;;;;2.40;2.20;;;;;;;;;;5033442;28;20116;-81
2023/06/26 00:09:47;;;;;;;3.00;2.40;;;;;;;;;;5015465;28;20037;-81
2023/06/26 00:12:14;;;;;;;2.88;2.65;;;;;;;;;;5032637;28;20041;-82
2023/06/26 00:14:40;;;;;;;2.92;2.60;;;;;;;;;;5032833;28;20025;-81
2023/06/26 00:17:07;;;;;;;3.13;2.30;;;;;;;;;;5032714;28;20068;-81
2023/06/26 00:19:33;;;;;;;2.38;2.17;;;;;;;;;;5032669;28;20565;-81
2023/06/26 00:22:00;;;;;;;3.00;2.33;;;;;;;;;;5033141;28;20037;-82
2023/06/26 00:24:26;;;;;;;2.88;2.40;;;;;;;;;;5033356;28;20025;-83
2023/06/26 00:26:52;;;;;;;2.70;2.47;;;;;;;;;;5014763;28;20224;-83
2023/06/26 00:29:18;;;;;;;3.15;2.25;;;;;;;;;;5032654;28;20492;-83
2023/06/26 00:31:44;;;;;;;3.15;2.65;;;;;;;;;;5032586;28;20664;-82
2023/06/26 00:34:10;;;;;;;4.28;2.17;;;;;;;;;;5032734;28;20043;-82
2023/06/26 00:36:36;;;;;;;3.42;2.33;;;;;;;;;;5014565;28;20491;-82
2023/06/26 00:39:03;;;;;;;2.65;2.28;;;;;;;;;;5014620;28;20095;-83
2023/06/26 00:41:29;;;;;;;2.35;2.15;;;;;;;;;;5032523;28;20492;-83
2023/06/26 00:43:55;;;;;;;3.70;2.30;;;;;;;;;;5014658;28;20026;-84
2023/06/26 00:46:21;;;;;;;3.35;2.35;;;30.60;42.30;;;;;;5014604;28;20396;-83
2023/06/26 00:48:48;;;;;;;3.80;2.38;;;30.50;42.20;;;;;;5032283;28;20060;-83
2023/06/26 00:51:14;;;;;;;3.13;1.95;;;;;;;;;;5032278;28;20031;-83
2023/06/26 00:53:41;;;;;;;2.28;1.95;;;;;;;;;;5032657;28;20053;-71
2023/06/26 00:56:07;;;;;;;3.80;2.17;;;30.50;42.10;;;;;;5032060;28;20077;-71
2023/06/26 00:58:33;;;;;;;3.30;2.15;;;30.40;57.20;;;;;;5032074;28;20021;-71
2023/06/26 01:01:00;;;;;;;2.85;2.10;;;30.50;42.70;;;;;;5031994;28;20030;-71
2023/06/26 01:03:26;;;;;;;2.72;2.30;;;30.30;56.90;;;;;;5031856;28;20120;-70
2023/06/26 01:05:54;;;;;;;3.70;2.20;;;30.40;42.70;;;;;;5032063;28;20112;-71
2023/06/26 01:08:20;;;;;;;3.47;2.13;;;30.40;42.70;;;;;;5031838;28;20547;-71
2023/06/26 01:10:46;;;;;;;4.70;2.38;;;30.40;42.60;;;;;;5031668;28;20052;-71
2023/06/26 01:13:14;;;;;;;4.03;2.25;;;30.40;42.70;;;;;;5031849;28;20040;-71
2023/06/26 01:15:40;;;;;;;3.85;2.25;;;30.70;57.60;;;;;;5031621;28;20395;-71
2023/06/26 01:18:06;;;;;;;2.95;2.10;;;30.30;42.70;;;;;;5031484;28;20053;-71
2023/06/26 01:20:34;;;;;;;3.50;2.03;;;30.00;57.00;;;;;;5032229;28;20053;-70
2023/06/26 01:23:27;;;;;;;5.00;2.30;;;30.30;42.70;;;;;;5031771;28;20022;-71
2023/06/26 01:26:15;;;;;;;3.95;2.20;;;30.30;42.50;;;;;;5031593;28;20456;-70
2023/06/26 01:28:43;;;;;;;2.80;2.53;;;30.20;57.20;;;;;;5031610;28;20021;-70
2023/06/26 01:31:10;;;;;;;4.07;2.53;;;30.30;42.70;;;;;;5031487;28;20022;-70
2023/06/26 01:33:36;;;;;;;4.50;1.90;;;;;;;;;;5013453;28;20025;-81
2023/06/26 01:36:04;;;;;;;4.53;2.42;;;30.20;42.30;;;;;;5031594;28;20030;-81
2023/06/26 01:38:30;;;;;;;6.25;2.72;;;;;;;;;;4997225;28;20464;-82
2023/06/26 01:40:56;;;;;;;4.20;2.30;;;;;;;;;;5031462;28;20061;-81
2023/06/26 01:43:35;;;;;;;3.85;2.10;;;30.20;42.10;;;;;;5031265;28;20500;-83
2023/06/26 01:46:05;;;;;;;3.33;2.00;;;30.20;42.70;;;;;;5013769;28;20036;-82
2023/06/26 01:48:37;;;;;;;6.45;2.65;;;30.10;42.10;;;;;;5031631;28;20025;-82
2023/06/26 01:51:03;;;;;;;3.90;2.28;;;;;;;;;;5031861;28;20107;-71
2023/06/26 01:53:36;;;;;;;5.47;2.25;;;30.10;42.10;;;;;;5031006;28;20091;-71
2023/06/26 01:56:15;;;;;;;3.83;1.85;;;30.00;42.70;;;;;;5030976;28;20033;-71
2023/06/26 01:58:46;;;;;;;4.32;2.30;;;29.70;57.20;;;;;;5031034;28;20022;-71
2023/06/26 02:01:12;;;;;;;4.15;2.17;;;30.10;42.80;;;;;;5031149;28;20037;-71
2023/06/26 02:03:38;;;;;;;5.55;2.30;;;;;;;;;;5030976;28;20079;-71
2023/06/26 02:06:03;;;;;;;4.72;2.30;;;30.00;42.10;;;;;;5031196;28;20021;-71
2023/06/26 02:08:29;;;;;;;4.65;2.40;;;30.00;42.70;;;;;;5031073;28;20028;-71
2023/06/26 02:10:55;;;;;;;5.57;2.88;;;30.00;42.80;;;;;;5030778;28;20030;-71
2023/06/26 02:13:20;;;;;;;3.38;2.10;;;30.00;42.90;;;;;;5030998;28;20036;-71
2023/06/26 02:15:46;;;;;;;4.20;2.60;;;29.90;57.60;;;;;;5030849;28;20046;-70
2023/06/26 02:18:12;;;;;;;3.88;1.98;;;;;;;;;;5031535;28;20480;-82
2023/06/26 02:20:39;;;;;;;3.45;1.92;;;;;;;;;;4997030;28;20030;-83
2023/06/26 02:23:05;;;;;;;4.50;2.35;;;;;;;;;;5013330;28;20075;-83
2023/06/26 02:25:31;;;;;;;5.13;2.50;;;;;;;;;;5033545;28;20026;-83
2023/06/26 02:27:57;;;;;;;5.55;2.65;;;;;;;;;;5034865;28;20032;-82
2023/06/26 02:30:22;;;;;;;4.90;2.50;;;29.80;42.20;;;;;;5034767;28;20037;-71
2023/06/26 02:32:48;;;;;;;5.05;2.65;;;29.80;42.90;;;;;;5034513;28;20108;-71
2023/06/26 02:35:14;;;;;;;5.85;2.65;;;29.80;43.10;;;;;;5034466;28;20048;-71
2023/06/26 02:37:39;;;;;;;6.47;2.38;;;29.80;43.10;;;;;;5034445;28;20033;-71
2023/06/26 02:40:07;;;;;;;6.03;2.75;;;29.50;58.70;;;;;;5034375;28;20037;-71
2023/06/26 02:42:33;;;;;;;6.13;2.83;;;29.80;43.10;;;;;;5034586;28;20104;-71
2023/06/26 02:44:58;;;;;;;6.72;2.70;;;29.70;57.90;;;;;;5034748;28;20110;-71
2023/06/26 02:47:24;;;;;;;3.88;2.42;;;29.70;43.10;;;;;;5035112;28;20036;-71
2023/06/26 02:49:49;;;;;;;7.68;2.70;;;29.70;43.70;;;;;;5034515;28;20032;-71
2023/06/26 02:52:15;;;;;;;4.53;2.08;;;;;;;;;;5034772;28;20030;-71
2023/06/26 02:54:41;;;;;;;5.30;2.80;;;29.70;42.40;;;;;;5034277;28;20032;-71
2023/06/26 02:57:07;;;;;;;6.50;2.35;;;29.70;43.20;;;;;;5034400;28;20041;-71
2023/06/26 02:59:32;;;;;;;5.38;2.35;;;29.70;42.90;;;;;;5034489;28;20036;-71
2023/06/26 03:01:58;;;;;;;3.15;2.08;;;29.70;43.10;;;;;;5034294;28;20117;-71
2023/06/26 03:04:24;;;;;;;4.78;2.05;;;29.70;43.00;;;;;;5034387;28;20037;-71
2023/06/26 03:06:50;;;;;;;7.80;2.72;;;29.60;43.00;;;;;;5034228;28;20032;-71
2023/06/26 03:09:16;;;;;;;4.53;2.53;;;29.60;43.10;;;;;;5034120;28;20541;-70
2023/06/26 03:11:42;;;;;;;4.63;2.25;;;29.50;43.30;;;;;;5033745;28;20139;-71
2023/06/26 03:14:09;;;;;;;5.18;2.15;;;29.60;58.30;;;;;;5034061;28;20053;-71
2023/06/26 03:16:34;;;;;;;4.00;2.20;;;29.60;43.30;;;;;;5034314;28;20719;-70
2023/06/26 03:19:00;;;;;;;4.72;2.20;;;29.60;43.10;;;;;;5033650;28;20021;-71
2023/06/26 03:21:25;;;;;;;4.68;2.35;;;29.60;43.40;;;;;;5033527;28;20065;-70
2023/06/26 03:23:51;;;;;;;4.43;2.63;;;29.60;43.30;;;;;;5033511;28;20021;-70
2023/06/26 03:26:17;;;;;;;3.80;2.30;;;29.60;43.30;;;;;;5033530;28;20041;-71
2023/06/26 03:28:43;;;;;;;5.55;2.20;;;;;;;;;;5033691;28;20060;-82
2023/06/26 03:31:09;;;;;;;5.88;2.58;;;;;;;;;;5015809;28;20425;-82
2023/06/26 03:33:35;;;;;;;5.07;2.33;;;;;;;;;;5033401;28;20040;-82
2023/06/26 03:36:01;;;;;;;3.80;2.05;;;;;;;;;;5032246;28;20038;-81
2023/06/26 03:38:27;;;;;;;4.47;2.60;;;;;;;;;;5033362;28;20116;-82
2023/06/26 03:40:53;;;;;;;3.90;2.20;;;;;;;;;;5033642;28;20056;-82
2023/06/26 03:43:19;;;;;;;4.78;2.05;;;;;;;;;;5034034;28;20048;-71
2023/06/26 03:45:45;;;;;;;3.15;1.90;;;29.40;42.80;;;;;;5033119;28;20037;-71
2023/06/26 03:48:10;;;;;;;3.85;2.00;;;29.80;58.50;;;;;;5033215;28;20109;-71
2023/06/26 03:50:36;;;;;;;3.83;2.13;;;29.40;43.40;;;;;;5033435;28;20032;-71
2023/06/26 03:53:01;;;;;;;4.43;1.77;;;29.40;43.40;;;;;;5032832;28;20030;-71
2023/06/26 03:55:27;;;;;;;4.47;2.10;;;;;;;;;;5032981;28;20061;-82
2023/06/26 03:57:53;;;;;;;2.67;1.92;;;;;;;;;;5033158;28;20043;-83
2023/06/26 04:00:19;;;;;;;4.07;2.03;;;;;;;;;;5033141;28;20100;-83
2023/06/26 04:06:32;;;;;;;4.68;2.17;;;29.30;43.30;;;;;;5020433;28;20044;-79
2023/06/26 04:08:58;;;;;;;2.80;1.77;;;29.30;43.50;;;;;;5013506;28;20084;-79
2023/06/26 04:11:25;;;;;;;3.42;1.70;;;29.30;58.60;;;;;;5013436;28;20038;-78
2023/06/26 04:13:51;;;;;;;4.35;1.83;;;29.20;43.30;;;;;;5013397;28;20542;-78
2023/06/26 04:16:17;;;;;;;2.83;1.70;;;29.20;43.20;;;;;;5013470;28;20432;-79
2023/06/26 04:18:43;;;;;;;3.53;1.90;;;29.20;43.40;;;;;;5013245;28;20061;-79
2023/06/26 04:21:11;;;;;;;3.65;1.80;;;29.20;43.40;;;;;;5013141;28;20480;-79
2023/06/26 04:23:39;;;;;;;3.45;2.17;;;29.30;43.20;;;;;;5012893;28;20456;-79
2023/06/26 04:26:06;;;;;;;4.20;2.00;;;29.20;43.60;;;;;;5012891;28;20026;-79
2023/06/26 04:28:33;;;;;;;2.90;1.90;;;29.20;43.50;;;;;;5013226;28;20185;-78
2023/06/26 04:31:00;;;;;;;2.47;1.60;;;29.20;43.50;;;;;;5013186;28;20026;-78
2023/06/26 04:33:26;;;;;;;3.17;2.00;;;29.20;43.30;;;;;;5013329;28;20029;-78
2023/06/26 04:35:52;;;;;;;2.08;1.40;;;29.10;43.50;;;;;;5013451;28;20037;-79
2023/06/26 04:38:19;;;;;;;3.38;1.80;;;29.10;43.50;;;;;;5012923;28;20029;-79
2023/06/26 04:40:45;;;;;;;9.38;2.03;;;29.10;43.50;;;;;;5012684;28;20403;-78
2023/06/26 04:43:11;;;;;;;3.60;1.90;;;29.10;43.60;;;;;;5012864;28;20030;-79
2023/06/26 04:45:37;;;;;;;3.45;2.00;;;29.10;43.40;;;;;;5012705;28;20419;-79
2023/06/26 04:48:03;;;;;;;3.08;2.15;;;29.10;43.60;;;;;;5012468;28;20486;-79
2023/06/26 04:50:30;;;;;;;3.53;1.70;;;28.90;58.30;;;;;;5012579;28;20109;-78
2023/06/26 04:52:56;;;;;;;2.92;1.60;;;29.00;43.60;;;;;;5012645;28;20088;-78
2023/06/26 04:55:24;;;;;;;3.92;1.90;;;29.10;44.30;;;;;;5012452;28;20060;-79
2023/06/26 04:57:50;;;;;;;2.42;1.73;;;29.00;43.60;;;;;;5012351;28;20055;-78
2023/06/26 05:00:16;;;;;;;2.92;1.65;;;29.10;43.70;;;;;;5012499;28;20100;-79
2023/06/26 05:02:41;;;;;;;2.70;1.70;;;29.20;58.70;;;;;;5012035;28;20085;-79
2023/06/26 05:05:07;;;;;;;3.75;1.98;;;29.00;43.70;;;;;;5012742;28;20445;-78
2023/06/26 05:07:33;;;;;;;4.15;1.95;;;29.00;43.40;;;;;;5012386;28;20026;-78
2023/06/26 05:09:59;;;;;;;3.47;1.70;;;29.00;43.80;;;;;;5012297;28;20139;-78
2023/06/26 05:12:25;;;;;;;4.88;2.28;;;28.90;43.70;;;;;;5012198;28;20030;-78
2023/06/26 05:14:53;;;;;;;2.97;1.92;;;29.20;59.30;;;;;;4994331;28;20030;-78
2023/06/26 05:17:19;;;;;;;4.63;1.77;;;29.00;43.90;;;;;;5012237;28;20037;-78
2023/06/26 05:19:44;;;;;;;4.03;1.90;;;28.90;43.70;;;;;;5012144;28;20018;-77
2023/06/26 05:22:11;;;;;;;3.35;2.15;;;28.90;43.70;;;;;;5012146;28;20048;-78
2023/06/26 05:24:38;;;;;;;2.78;1.70;;;28.60;58.40;;;;;;5012218;28;20426;-77
2023/06/26 05:27:04;;;;;;;3.58;1.83;;;28.90;43.90;;;;;;5011987;28;20033;-86
2023/06/26 05:29:31;;;;;;;4.03;2.00;;;28.90;43.90;;;;;;5011520;28;20113;-78
2023/06/26 05:31:57;;;;;;;4.95;1.90;;;28.90;43.90;;;;;;5012356;28;20021;-77
2023/06/26 05:34:24;;;;;;;2.78;1.50;;;28.90;44.00;;;;;;5011275;28;20048;-77
2023/06/26 05:36:51;;;;;;;3.55;1.75;;;28.90;43.90;;;;;;4994153;28;20388;-79
2023/06/26 05:39:18;;;;;;;2.67;1.80;;;28.60;43.60;;;;;;5011944;28;20026;-78
2023/06/26 05:41:44;;;;;;;3.25;1.65;;;28.90;43.70;;;;;;5011846;28;20379;-78
2023/06/26 05:44:10;;;;;;;2.17;1.40;;;28.90;43.80;;;;;;5011813;28;20030;-78
2023/06/26 05:46:36;;;;;;;4.80;1.70;;;28.90;43.80;;;;;;5011741;28;20014;-79
2023/06/26 05:49:02;;;;;;;2.88;1.30;;;28.90;43.70;;;;;;5011588;28;20044;-77
2023/06/26 05:51:28;;;;;;;3.20;2.08;;;28.90;43.70;;;;;;5011668;28;20018;-77
2023/06/26 05:53:54;;;;;;;3.47;2.00;;;28.90;43.80;;;;;;5011642;28;20141;-78
2023/06/26 05:56:20;;;;;;;2.58;1.48;;;28.90;43.80;;;;;;4993854;28;20030;-78
2023/06/26 05:58:47;;;;;;;3.25;1.50;;;28.70;58.60;;;;;;4993945;28;20042;-77
2023/06/26 06:01:12;;;;;;;2.50;1.58;;;28.60;58.60;;;;;;5016289;28;20052;-78
2023/06/26 06:03:39;;;;;;;4.43;1.80;;;28.80;43.70;;;;;;5015568;28;20468;-78
2023/06/26 06:06:05;;;;;;;2.45;1.65;;;28.80;43.70;;;;;;5015414;28;20034;-78
2023/06/26 06:08:31;;;;;;;4.05;1.83;;;28.80;43.70;;;;;;5015573;28;20468;-78
2023/06/26 06:10:59;;;;;;;2.92;1.50;;;28.80;43.60;;;;;;5015819;28;20434;-78
2023/06/26 06:13:25;;;;;;;2.28;1.50;;;28.80;43.60;;;;;;5015827;28;20097;-79
2023/06/26 06:15:51;;;;;;;3.33;1.30;;;28.80;43.50;;;;;;5015631;28;20033;-78
2023/06/26 06:18:17;;;;;;;3.30;1.45;;;28.80;43.50;;;;;;5015364;28;20032;-79
2023/06/26 06:20:44;;;;;;;7.45;1.80;;;28.80;43.50;;;;;;5015645;28;20203;-77
2023/06/26 06:23:10;;;;;;;3.08;1.45;;;28.80;43.50;;;;;;5015133;28;20488;-78
2023/06/26 06:25:36;;;;;;;2.80;1.48;;;28.70;43.40;;;;;;5015514;28;20036;-78
2023/06/26 06:28:04;;;;;;;1.83;1.20;;;28.50;58.40;;;;;;5015474;28;20565;-82
2023/06/26 06:30:30;;;;;;;3.20;1.27;;;28.70;43.40;;;;;;5015922;28;20097;-82
2023/06/26 06:32:57;;;;;;;4.40;1.27;;;29.00;58.60;;;;;;5015272;28;20025;-85
2023/06/26 06:35:23;;;;;;;2.97;1.20;;;28.70;43.30;;;;;;5015244;28;20100;-82
2023/06/26 06:37:50;;;;;;;2.88;1.00;;;28.70;43.30;;;;;;5015309;28;20419;-77
2023/06/26 06:40:16;;;;;;;3.17;1.13;;;28.70;43.30;;;;;;5015227;28;20033;-78
2023/06/26 06:42:42;;;;;;;3.83;1.20;;;28.70;43.30;;;;;;5015474;28;20052;-80
2023/06/26 06:45:09;;;;;;;3.70;1.27;;;28.70;43.30;;;;;;5015201;28;20200;-81
2023/06/26 06:47:35;;;;;;;3.22;1.23;;;28.70;43.20;;;;;;5014774;28;20030;-80
2023/06/26 06:50:10;;;;;;;4.55;1.00;;;28.50;58.00;;;;;;5014795;28;20156;-78
2023/06/26 06:52:40;;;;;;;2.20;0.82;;;28.70;43.10;;;;;;5014816;28;20025;-80
2023/06/26 06:55:10;;;;;;;2.67;1.23;;;28.70;43.10;;;;;;5014716;28;20022;-79
2023/06/26 06:57:37;;;;;;;4.13;1.10;;;28.70;43.10;;;;;;5015118;28;20108;-80
2023/06/26 07:00:09;;;;;;;4.35;1.40;;;28.70;43.00;;;;;;5014863;28;20040;-80
2023/06/26 07:02:36;;;;;;;4.47;1.35;;;28.70;43.10;;;;;;5014311;28;20392;-80
2023/06/26 07:05:03;;;;;;;2.53;0.88;;;28.60;43.20;;;;;;4997081;28;20108;-80
2023/06/26 07:07:33;;;;;;;2.85;0.98;;;28.60;43.00;;;;;;5014614;28;20068;-80
2023/06/26 07:10:01;;;;;;;5.18;0.75;;;28.60;43.00;;;;;;5014085;28;20037;-81
2023/06/26 07:12:28;;;;;;;4.03;0.95;;;28.60;43.00;;;;;;4997189;28;20041;-81
2023/06/26 07:14:55;;;;;;;1.55;0.70;;;28.60;43.00;;;;;;4996724;28;20022;-81
2023/06/26 07:17:21;;;;;;;4.95;1.00;;;28.60;43.00;;;;;;5014572;28;20113;-82
2023/06/26 07:19:48;;;;;;;4.00;1.00;;;28.60;43.00;;;;;;5014608;28;20101;-76
2023/06/26 07:22:14;;;;;;;5.82;1.10;;;;;;;;;;5017562;28;20022;-78
2023/06/26 07:24:41;;;;;;;3.95;1.27;;;28.60;42.40;;;;;;5015973;28;20030;-83
2023/06/26 07:27:07;;;;;;;4.15;1.27;;;28.60;42.80;;;;;;5014813;28;20022;-86
2023/06/26 07:29:33;;;;;;;5.90;1.42;;;28.60;42.80;;;;;;5014006;28;20025;-80
2023/06/26 07:31:59;;;;;;;5.47;1.25;;;28.50;42.70;;;;;;5014425;28;20351;-79
2023/06/26 07:34:25;;;;;;;5.10;1.30;;;28.50;42.80;;;;;;5014247;28;20036;-81
2023/06/26 07:36:51;;;;;;;2.10;0.88;;;28.50;42.80;;;;;;5014010;28;20042;-81
2023/06/26 07:39:17;;;;;;;2.63;1.05;;;28.50;43.00;;;;;;5013919;28;20480;-80
2023/06/26 07:41:43;;;;;;;3.83;1.02;;;28.50;43.00;;;;;;5014175;28;20026;-78
2023/06/26 07:44:10;;;;;;;2.45;0.88;;;28.50;43.00;;;;;;5013443;28;20057;-78
2023/06/26 07:46:36;;;;;;;5.63;1.00;;;28.50;43.10;;;;;;5014109;28;20109;-79
2023/06/26 07:49:02;;;;;;;3.67;0.80;;;28.50;43.10;;;;;;5013832;28;20497;-78
2023/06/26 07:51:28;;;;;;;2.05;0.80;;;28.50;43.00;;;;;;5013682;28;20076;-78
2023/06/26 07:53:54;;;;;;;4.07;0.95;;;28.50;43.20;;;;;;5013776;28;20502;-79
2023/06/26 07:56:19;;;;;;;1.98;1.00;;;28.50;43.10;;;;;;5014137;28;20041;-78
2023/06/26 07:58:45;;;;;;;2.03;0.80;;;28.50;43.20;;;;;;5012967;28;20073;-78
2023/06/26 08:01:11;;;;;;;2.40;0.82;;;28.30;58.00;;;;;;5013830;28;20026;-78
2023/06/26 08:03:36;;;;;;;2.35;0.93;;;28.50;43.20;;;;;;5013851;28;20061;-78
2023/06/26 08:06:03;;;;;;;4.25;1.05;;;28.50;43.20;;;;;;4995748;28;20033;-77
2023/06/26 08:08:29;;;;;;;3.30;1.00;;;28.50;43.20;;;;;;5013406;28;20026;-78
2023/06/26 08:10:54;;;;;;;2.75;0.95;;;28.50;43.00;;;;;;5013304;28;20503;-76
2023/06/26 08:13:20;;;;;;;4.15;0.80;;;28.60;43.00;;;;;;5013358;28;20026;-76
2023/06/26 08:15:46;;;;;;;5.05;0.98;;;28.60;43.10;;;;;;5013248;28;20549;-76
2023/06/26 08:18:11;;;;;;;3.97;1.33;;;28.60;43.00;;;;;;5013385;28;20149;-78
2023/06/26 08:20:37;;;;;;;2.83;1.15;;;28.60;42.80;;;;;;5013069;28;20064;-76
2023/06/26 08:23:04;;;;;;;3.95;0.95;;;28.60;42.70;;;;;;5013156;28;20518;-76
2023/06/26 08:25:30;;;;;;;1.50;0.90;;;;;;;;;;5013054;28;20014;-82
2023/06/26 08:27:56;;;;;;;2.85;1.05;;;28.60;42.10;;;;;;5014376;28;20120;-75
2023/06/26 08:30:27;;;;;;;3.60;1.13;;;28.60;42.70;;;;;;5013322;28;20096;-74
2023/06/26 08:32:56;;;;;;;3.80;1.10;;;28.60;42.60;;;;;;5013241;28;20025;-75
2023/06/26 08:35:22;;;;;;;4.03;1.02;;;28.60;42.50;;;;;;5013157;28;20072;-75
2023/06/26 08:37:48;;;;;;;3.55;0.90;;;28.60;42.70;;;;;;5012898;28;20384;-73
2023/06/26 08:40:18;;;;;;;2.80;1.08;;;28.60;42.70;;;;;;5012461;28;20018;-74
2023/06/26 08:42:44;;;;;;;2.78;1.10;;;28.70;42.60;;;;;;5012950;28;20036;-74
2023/06/26 08:45:12;;;;;;;5.75;1.10;;;28.60;42.50;;;;;;5012773;28;20114;-74
2023/06/26 08:47:39;;;;;;;1.80;0.77;;;28.60;42.40;;;;;;5012974;28;20030;-75
2023/06/26 08:50:12;;;;;;;2.47;0.75;;;28.60;42.10;;;;;;5012715;28;20477;-75
2023/06/26 08:52:50;;;;;;;5.68;1.38;;;28.60;42.10;;;;;;5012618;28;20484;-75
2023/06/26 08:55:18;;;;;;;5.32;1.20;;;30.00;42.90;;;;;;5004659;28;20392;-75
2023/06/26 08:57:43;;;;;;;2.03;0.88;;;28.60;42.90;;;;;;5012225;28;20045;-75
2023/06/26 09:00:10;;;;;;;3.40;1.00;;;28.70;42.50;;;;;;5012576;28;20026;-76
2023/06/26 09:02:36;;;;;;;3.72;0.75;;;28.70;42.40;;;;;;5012289;28;20141;-76
2023/06/26 09:05:03;;;;;;;3.08;0.85;;;28.70;42.00;;;;;;5012476;28;20103;-76
2023/06/26 09:07:29;;;;;;;3.75;0.93;;;28.70;41.90;;;;;;5012435;28;20079;-76
2023/06/26 09:09:54;;;;;;;3.80;0.95;;;28.50;56.90;;;;;;5012273;28;20109;-77
2023/06/26 09:12:20;;;;;;;5.97;1.10;;;28.70;42.00;;;;;;5012359;28;20518;-76
2023/06/26 09:14:47;;;;;;;4.18;1.23;;;28.70;41.80;;;;;;5012168;28;20080;-76
2023/06/26 09:17:16;;;;;;;2.45;0.90;;;28.80;41.90;;;;;;5012325;28;20046;-76
2023/06/26 09:19:45;;;;;;;2.47;0.93;;;28.80;41.90;;;;;;5012243;28;20107;-76
2023/06/26 09:22:13;;;;;;;1.50;0.60;;;28.80;42.00;;;;;;5012103;28;20423;-76
2023/06/26 09:24:41;;;;;;;1.77;0.75;;;28.90;42.40;;;;;;5012363;28;20018;-76
2023/06/26 09:27:07;;;;;;;3.15;0.98;;;28.90;42.40;;;;;;5012175;28;20025;-77
2023/06/26 09:29:33;;;;;;;2.85;1.00;;;28.90;42.10;;;;;;4994232;28;20033;-76
2023/06/26 09:32:00;;;;;;;1.20;0.50;;;29.00;42.40;;;;;;5011597;28;20036;-75
2023/06/26 09:34:32;;;;;;;2.95;1.00;;;29.00;42.00;;;;;;5011296;28;20072;-75
2023/06/26 09:36:59;;;;;;;1.63;1.00;;;29.00;41.90;;;;;;5011703;28;20041;-75
2023/06/26 09:39:24;;;;;;;3.80;1.00;;;29.00;41.30;;;;;;4994435;28;20496;-75
2023/06/26 09:41:50;;;;;;;3.95;1.20;;;29.10;41.20;;;;;;5012034;28;20113;-76
2023/06/26 09:44:16;;;;;;;3.83;1.15;;;29.10;40.90;;;;;;5012007;28;20026;-75
2023/06/26 09:46:46;;;;;;;2.65;0.95;;;29.10;40.90;;;;;;5011934;28;20278;-75
2023/06/26 09:49:12;;;;;;;1.52;0.90;;;29.10;40.40;;;;;;5012299;28;20517;-75
2023/06/26 09:51:40;;;;;;;2.00;0.93;;;29.10;40.60;;;;;;5011575;28;20558;-75
2023/06/26 09:54:07;;;;;;;3.22;1.05;;;29.20;40.70;;;;;;5011937;28;20076;-74
2023/06/26 09:56:33;;;;;;;6.00;1.20;;;29.20;40.30;;;;;;5010973;28;20052;-75
2023/06/26 09:59:04;;;;;;;3.45;1.00;;;29.30;40.80;;;;;;5011805;28;20053;-75
2023/06/26 10:01:31;;;;;;;2.40;0.93;;;29.30;40.30;;;;;;5011499;28;20029;-77
2023/06/26 10:03:58;;;;;;;3.00;1.00;;;29.40;41.10;;;;;;5011947;28;20124;-76
2023/06/26 10:06:31;;;;;;;3.63;0.90;;;29.40;40.40;;;;;;4978331;28;20091;-79
2023/06/26 10:08:59;;;;;;;3.47;0.90;;;29.40;41.10;;;;;;5011992;28;20369;-78
2023/06/26 10:11:31;;;;;;;3.13;1.05;;;29.40;41.30;;;;;;5012332;28;20064;-77
2023/06/26 10:13:58;;;;;;;2.08;1.00;;;29.50;40.90;;;;;;5011874;28;20049;-78
2023/06/26 10:16:28;;;;;;;5.50;0.80;;;29.50;40.80;;;;;;5011756;28;20053;-78
2023/06/26 10:18:57;;;;;;;;;;;29.60;41.00;;;;;;5012005;28;20022;-77
2023/06/26 10:21:26;;;;;;;4.28;1.17;;;29.70;41.20;;;;;;5011880;28;19959;-81
2023/06/26 10:23:54;;;;;;;4.97;1.00;;;29.70;40.60;;;;;;5011382;28;20105;-79
2023/06/26 10:26:22;;;;;;;2.17;0.70;;;29.70;40.40;;;;;;4994084;28;20057;-78
2023/06/26 10:28:51;;;;;;;3.97;1.05;;;29.70;40.90;;;;;;5011411;28;20112;-78
2023/06/26 10:31:21;;;;;;;1.42;0.82;;;29.80;41.00;;;;;;5011324;28;20361;-78
2023/06/26 10:33:47;;;;;;;5.13;1.25;;;29.80;40.40;;;;;;5011469;28;20029;-78
2023/06/26 10:36:15;;;;;;;3.58;1.13;;;29.80;40.00;;;;;;5011703;28;20045;-80
2023/06/26 10:38:55;;;;;;;4.07;1.10;;;29.80;39.70;;;;;;5011918;28;20018;-82
2023/06/26 10:41:25;;;;;;;1.87;0.73;;;29.80;39.80;;;;;;5011388;28;20063;-78
2023/06/26 10:44:07;;;;;;;2.20;1.05;;;29.90;39.80;;;;;;5011387;28;20337;-79
2023/06/26 10:46:52;;;;;;;3.90;0.88;;;30.00;39.70;;;;;;5013852;28;20049;-79
2023/06/26 10:49:28;;;;;;;1.15;0.85;;;30.00;39.50;;;;;;5014882;28;20026;-80
2023/06/26 10:51:57;;;;;;;4.45;1.55;;;30.10;39.90;;;;;;4997328;28;20554;-78
2023/06/26 10:54:23;;;;;;;2.38;1.00;;;30.10;39.40;;;;;;5015086;28;20084;-79
2023/06/26 10:56:56;;;;;;;3.00;1.05;;;30.20;39.60;;;;;;5015084;28;20424;-84
2023/06/26 10:59:25;;;;;;;4.00;1.33;;;30.10;38.30;;;;;;5014839;28;20032;-79
2023/06/26 11:02:02;;;;;;;1.95;0.93;;;30.20;38.60;;;;;;5014312;28;20053;-80
2023/06/26 11:04:45;;;;;;;3.83;0.90;;;30.20;39.60;;;;;;5014724;28;20102;-79
2023/06/26 11:07:20;;;;;;;3.92;0.88;;;30.30;39.10;;;;;;5014900;28;20022;-79
2023/06/26 11:10:19;;;;;;;2.13;0.80;;;30.40;38.70;;;;;;5014997;28;20080;-80
2023/06/26 11:12:47;;;;;;;1.30;0.68;;;30.30;39.80;;;;;;4960944;28;20492;-79
2023/06/26 11:15:15;;;;;;;2.28;1.17;;;30.30;40.00;;;;;;5014342;28;20026;-80
2023/06/26 11:17:43;;;;;;;3.88;0.65;;;30.30;39.90;;;;;;5014607;28;20041;-80
2023/06/26 11:20:11;;;;;;;1.73;0.90;;;30.20;40.10;;;;;;5014126;28;20492;-78
2023/06/26 11:22:41;;;;;;;3.22;1.10;;;30.20;40.50;;;;;;5014164;28;20435;-77
2023/06/26 11:25:09;;;;;;;2.05;0.82;;;30.20;40.10;;;;;;5014085;28;20029;-77
2023/06/26 11:27:41;;;;;;;2.10;0.63;;;30.20;39.80;;;;;;5014099;28;20168;-77
2023/06/26 11:30:09;;;;;;;4.25;1.02;;;30.20;40.10;;;;;;5014227;28;20033;-77
2023/06/26 11:32:37;;;;;;;2.08;0.77;;;30.30;40.20;;;;;;5014220;28;20037;-77
2023/06/26 11:35:07;;;;;;;1.63;0.73;;;30.30;40.40;;;;;;5013845;28;20471;-77
2023/06/26 11:37:33;;;;;;;1.80;0.85;;;30.30;40.30;;;;;;5014336;28;20026;-77
2023/06/26 11:39:59;;;;;;;1.73;0.70;;;30.30;40.50;;;;;;5014095;28;20499;-77
2023/06/26 11:42:26;;;;;;;1.60;0.80;;;29.80;40.00;;;;;;5014122;28;20100;-77
2023/06/26 11:44:52;;;;;;;1.75;1.00;;;30.40;40.30;;;;;;5013863;28;20240;-77
2023/06/26 11:47:20;;;;;;;2.17;1.00;;;30.40;40.30;;;;;;5014017;28;20038;-76
2023/06/26 11:49:49;;;;;;;2.67;0.98;;;30.50;40.10;;;;;;4996574;28;20095;-76
2023/06/26 11:52:16;;;;;;;2.88;0.80;;;;;;;;;;5013582;28;20488;-77
2023/06/26 11:54:43;;;;;;;1.48;0.70;;;30.50;36.80;;;;;;5013859;28;20109;-76
2023/06/26 11:57:14;;;;;;;2.13;0.70;;;30.90;51.20;;;;;;5012591;28;20038;-76
2023/06/26 11:59:40;;;;;;;1.15;0.68;;;30.60;36.40;;;;;;5013986;28;20060;-77
2023/06/26 12:02:12;;;;;;;4.32;0.70;;;30.70;37.10;;;;;;5013320;28;20037;-76
2023/06/26 12:04:41;;;;;;;1.85;0.80;;;30.80;37.80;;;;;;5013845;28;20029;-77
2023/06/26 12:07:09;;;;;;;2.63;0.70;;;30.80;37.50;;;;;;5014022;28;20029;-78
2023/06/26 12:09:47;;;;;;;1.70;0.70;;;30.80;36.20;;;;;;5013952;28;20048;-78
2023/06/26 12:12:17;;;;;;;2.75;0.80;;;30.90;36.20;;;;;;5013788;28;20102;-77
2023/06/26 12:14:44;;;;;;;1.40;0.60;;;30.90;36.30;;;;;;5013822;28;20014;-78
2023/06/26 12:17:13;;;;;;;1.95;0.60;;;31.00;37.80;;;;;;5013716;28;20080;-77
2023/06/26 12:19:49;;;;;;;1.40;0.68;;;31.00;37.20;;;;;;5013533;28;20503;-78
2023/06/26 12:22:17;;;;;;;0.90;0.50;;;31.00;35.20;;;;;;5005686;28;20547;-78
2023/06/26 12:24:44;;;;;;;1.30;0.60;;;30.90;35.00;;;;;;5013259;28;20052;-77
2023/06/26 12:27:12;;;;;;;1.58;0.73;;;31.00;36.30;;;;;;5013775;28;20021;-78
2023/06/26 12:29:40;;;;;;;1.05;0.60;;;31.20;37.30;;;;;;5013328;28;20025;-78
2023/06/26 12:32:10;;;;;;;0.93;0.47;;;31.20;36.60;;;;;;5013472;28;20025;-78
2023/06/26 12:34:38;;;;;;;2.67;0.70;;;31.20;36.20;;;;;;5013225;28;20544;-77
2023/06/26 12:37:11;;;;;;;1.55;0.40;;;31.30;36.30;;;;;;5013525;28;20029;-78
2023/06/26 12:39:53;;;;;;;1.83;0.65;;;31.40;36.00;;;;;;5013052;28;20022;-78
2023/06/26 12:42:22;;;;;;;1.95;0.63;;;31.40;34.30;;;;;;5014019;28;20083;-78
2023/06/26 12:44:48;;;;;;;2.03;0.60;;;31.40;35.20;;;;;;5012963;28;20046;-78
2023/06/26 12:47:16;;;;;;;3.58;0.68;;;31.50;33.10;;;;;;5012658;28;20053;-78
2023/06/26 12:49:44;;;;;;;1.83;0.50;;;31.50;33.70;;;;;;5012553;28;20030;-78
2023/06/26 12:52:15;;;;;;;2.00;0.60;;;31.50;33.70;;;;;;5013040;28;20084;-78
2023/06/26 12:54:43;;;;;;;3.45;0.70;;;31.50;33.90;;;;;;5012885;28;20026;-78
2023/06/26 12:57:10;;;;;;;3.20;0.80;;;31.60;34.60;;;;;;5012810;28;20030;-78
2023/06/26 12:59:37;;;;;;;1.25;0.55;;;31.60;34.40;;;;;;5012840;28;20030;-80
2023/06/26 13:02:04;;;;;;;0.60;0.57;;;31.70;34.40;;;;;;5012598;28;20408;-76
2023/06/26 13:04:30;;;;;;;1.27;0.50;;;31.70;34.50;;;;;;5012444;28;20014;-78
2023/06/26 13:06:57;;;;;;;1.73;0.70;;;31.70;35.50;;;;;;5012560;28;20030;-78